sensor_id;sensor_type;location;lat;lon;timestamp;pressure;altitude;pressure_sealevel;temperature;humidity
73700;BME280;62005;50.082;8.988;2023-07-31T00:01:10;100319.75;;;19.57;62.74
73700;BME280;62005;50.082;8.988;2023-07-31T00:03:36;100314.53;;;19.55;62.81
73700;BME280;62005;50.082;8.988;2023-07-31T00:06:01;100320.53;;;19.57;62.36
73700;BME280;62005;50.082;8.988;2023-07-31T00:08:26;100313.44;;;19.56;62.54
73700;BME280;62005;50.082;8.988;2023-07-31T00:10:52;100318.34;;;19.59;62.55
73700;BME280;62005;50.082;8.988;2023-07-31T00:13:18;100323.00;;;19.59;62.89
73700;BME280;62005;50.082;8.988;2023-07-31T00:15:43;100316.72;;;19.58;62.08
73700;BME280;62005;50.082;8.988;2023-07-31T00:18:09;100305.22;;;19.51;62.96
73700;BME280;62005;50.082;8.988;2023-07-31T00:20:34;100317.78;;;19.57;62.91
73700;BME280;62005;50.082;8.988;2023-07-31T00:22:59;100313.97;;;19.58;63.45
73700;BME280;62005;50.082;8.988;2023-07-31T00:25:25;100314.50;;;19.60;63.29
73700;BME280;62005;50.082;8.988;2023-07-31T00:27:50;100309.56;;;19.57;63.29
73700;BME280;62005;50.082;8.988;2023-07-31T00:30:15;100316.72;;;19.58;63.31
73700;BME280;62005;50.082;8.988;2023-07-31T00:32:41;100317.78;;;19.57;63.25
73700;BME280;62005;50.082;8.988;2023-07-31T00:35:07;100305.22;;;19.51;62.96
73700;BME280;62005;50.082;8.988;2023-07-31T00:37:32;100301.94;;;19.49;63.66
73700;BME280;62005;50.082;8.988;2023-07-31T00:39:57;100317.28;;;19.55;63.07
73700;BME280;62005;50.082;8.988;2023-07-31T00:42:23;100294.00;;;19.48;62.88
73700;BME280;62005;50.082;8.988;2023-07-31T00:44:49;100310.72;;;19.51;62.78
73700;BME280;62005;50.082;8.988;2023-07-31T00:47:14;100297.00;;;19.51;63.38
73700;BME280;62005;50.082;8.988;2023-07-31T00:49:40;100294.84;;;19.43;63.34
73700;BME280;62005;50.082;8.988;2023-07-31T00:52:05;100299.22;;;19.44;63.13
73700;BME280;62005;50.082;8.988;2023-07-31T00:54:31;100298.66;;;19.47;63.21
73700;BME280;62005;50.082;8.988;2023-07-31T00:56:56;100295.41;;;19.45;64.09
73700;BME280;62005;50.082;8.988;2023-07-31T00:59:22;100280.88;;;19.44;64.33
73700;BME280;62005;50.082;8.988;2023-07-31T01:01:48;100286.06;;;19.46;64.01
73700;BME280;62005;50.082;8.988;2023-07-31T01:04:14;100276.78;;;19.37;63.94
73700;BME280;62005;50.082;8.988;2023-07-31T01:10:03;100278.69;;;19.41;63.92
73700;BME280;62005;50.082;8.988;2023-07-31T01:12:30;100283.34;;;19.41;63.87
73700;BME280;62005;50.082;8.988;2023-07-31T01:15:07;100285.81;;;19.42;63.56
73700;BME280;62005;50.082;8.988;2023-07-31T01:17:35;100293.75;;;19.44;63.94
73700;BME280;62005;50.082;8.988;2023-07-31T01:20:03;100282.25;;;19.37;63.68
73700;BME280;62005;50.082;8.988;2023-07-31T01:30:58;100274.00;;;19.42;62.83
73700;BME280;62005;50.082;8.988;2023-07-31T01:33:25;100256.53;;;19.33;62.85
73700;BME280;62005;50.082;8.988;2023-07-31T01:35:51;100272.38;;;19.41;63.17
73700;BME280;62005;50.082;8.988;2023-07-31T01:38:21;100251.59;;;19.35;63.07
73700;BME280;62005;50.082;8.988;2023-07-31T01:40:51;100255.94;;;19.41;63.14
73700;BME280;62005;50.082;8.988;2023-07-31T01:43:16;100270.75;;;19.40;62.68
73700;BME280;62005;50.082;8.988;2023-07-31T01:45:41;100263.06;;;19.37;63.02
73700;BME280;62005;50.082;8.988;2023-07-31T01:48:07;100270.19;;;19.43;62.60
73700;BME280;62005;50.082;8.988;2023-07-31T01:50:32;100239.00;;;19.24;63.10
73700;BME280;62005;50.082;8.988;2023-07-31T01:52:57;100248.81;;;19.40;62.90
73700;BME280;62005;50.082;8.988;2023-07-31T01:55:23;100243.63;;;19.38;62.72
73700;BME280;62005;50.082;8.988;2023-07-31T01:57:48;100241.69;;;19.39;62.39
73700;BME280;62005;50.082;8.988;2023-07-31T02:00:14;100233.47;;;19.34;62.65
73700;BME280;62005;50.082;8.988;2023-07-31T02:02:39;100246.38;;;19.38;62.38
73700;BME280;62005;50.082;8.988;2023-07-31T02:05:05;100233.47;;;19.34;62.68
73700;BME280;62005;50.082;8.988;2023-07-31T02:07:30;100244.97;;;19.41;62.59
73700;BME280;62005;50.082;8.988;2023-07-31T02:09:56;100224.22;;;19.30;62.78
73700;BME280;62005;50.082;8.988;2023-07-31T02:12:21;100237.28;;;19.43;62.15
73700;BME280;62005;50.082;8.988;2023-07-31T02:14:47;100211.28;;;19.30;62.63
73700;BME280;62005;50.082;8.988;2023-07-31T02:17:12;100226.31;;;19.43;62.43
73700;BME280;62005;50.082;8.988;2023-07-31T02:19:37;100229.34;;;19.41;63.00
73700;BME280;62005;50.082;8.988;2023-07-31T02:22:03;100220.31;;;19.36;62.67
73700;BME280;62005;50.082;8.988;2023-07-31T02:24:28;100226.88;;;19.40;62.96
73700;BME280;62005;50.082;8.988;2023-07-31T02:26:54;100182.03;;;19.16;62.67
73700;BME280;62005;50.082;8.988;2023-07-31T02:29:19;100200.06;;;19.27;62.94
73700;BME280;62005;50.082;8.988;2023-07-31T02:31:44;100215.41;;;19.33;62.67
73700;BME280;62005;50.082;8.988;2023-07-31T02:34:10;100219.75;;;19.39;62.34
73700;BME280;62005;50.082;8.988;2023-07-31T02:36:35;100218.16;;;19.33;62.78
73700;BME280;62005;50.082;8.988;2023-07-31T02:39:00;100215.41;;;19.33;63.26
73700;BME280;62005;50.082;8.988;2023-07-31T02:41:26;100232.38;;;19.40;63.00
73700;BME280;62005;50.082;8.988;2023-07-31T02:43:51;100220.88;;;19.38;62.69
73700;BME280;62005;50.082;8.988;2023-07-31T02:46:17;100224.19;;;19.35;62.94
73700;BME280;62005;50.082;8.988;2023-07-31T02:48:42;100229.63;;;19.40;62.98
73700;BME280;62005;50.082;8.988;2023-07-31T02:51:07;100220.31;;;19.36;62.78
73700;BME280;62005;50.082;8.988;2023-07-31T02:53:33;100219.50;;;19.35;63.03
73700;BME280;62005;50.082;8.988;2023-07-31T02:55:58;100202.03;;;19.21;63.12
73700;BME280;62005;50.082;8.988;2023-07-31T02:58:23;100209.38;;;19.26;63.20
73700;BME280;62005;50.082;8.988;2023-07-31T03:00:49;100206.63;;;19.26;63.10
73700;BME280;62005;50.082;8.988;2023-07-31T03:03:14;100220.88;;;19.33;63.15
73700;BME280;62005;50.082;8.988;2023-07-31T03:05:39;100236.78;;;19.36;63.07
73700;BME280;62005;50.082;8.988;2023-07-31T03:08:05;100219.25;;;19.32;63.49
73700;BME280;62005;50.082;8.988;2023-07-31T03:10:30;100231.84;;;19.33;62.85
73700;BME280;62005;50.082;8.988;2023-07-31T03:12:56;100216.22;;;19.28;63.38
73700;BME280;62005;50.082;8.988;2023-07-31T03:15:21;100229.66;;;19.35;63.18
73700;BME280;62005;50.082;8.988;2023-07-31T03:17:46;100228.56;;;19.31;63.40
73700;BME280;62005;50.082;8.988;2023-07-31T03:20:12;100226.66;;;19.31;63.74
73700;BME280;62005;50.082;8.988;2023-07-31T03:22:37;100231.84;;;19.33;63.53
73700;BME280;62005;50.082;8.988;2023-07-31T03:25:03;100235.72;;;19.32;63.56
73700;BME280;62005;50.082;8.988;2023-07-31T03:27:29;100233.22;;;19.30;63.68
73700;BME280;62005;50.082;8.988;2023-07-31T03:29:54;100228.56;;;19.31;63.98
73700;BME280;62005;50.082;8.988;2023-07-31T03:32:20;100220.63;;;19.29;64.35
73700;BME280;62005;50.082;8.988;2023-07-31T03:34:45;100222.53;;;19.24;64.61
73700;BME280;62005;50.082;8.988;2023-07-31T03:37:10;100228.03;;;19.24;65.28
73700;BME280;62005;50.082;8.988;2023-07-31T03:39:36;100219.84;;;19.19;66.05
73700;BME280;62005;50.082;8.988;2023-07-31T03:42:01;100227.50;;;19.27;66.63
73700;BME280;62005;50.082;8.988;2023-07-31T03:44:26;100222.06;;;19.17;66.63
73700;BME280;62005;50.082;8.988;2023-07-31T03:46:52;100217.13;;;19.14;66.66
73700;BME280;62005;50.082;8.988;2023-07-31T03:49:17;100226.44;;;19.18;66.56
73700;BME280;62005;50.082;8.988;2023-07-31T03:51:43;100217.69;;;19.11;66.91
73700;BME280;62005;50.082;8.988;2023-07-31T03:54:08;100225.38;;;19.09;66.81
73700;BME280;62005;50.082;8.988;2023-07-31T03:56:33;100225.38;;;19.09;66.81
73700;BME280;62005;50.082;8.988;2023-07-31T03:58:59;100233.06;;;19.07;67.36
73700;BME280;62005;50.082;8.988;2023-07-31T04:01:24;100236.91;;;19.06;67.00
73700;BME280;62005;50.082;8.988;2023-07-31T04:03:50;100223.25;;;18.96;66.95
73700;BME280;62005;50.082;8.988;2023-07-31T04:06:15;100221.31;;;18.96;67.79
73700;BME280;62005;50.082;8.988;2023-07-31T04:08:43;100230.91;;;18.99;67.47
73700;BME280;62005;50.082;8.988;2023-07-31T04:11:09;100220.25;;;18.92;67.70
73700;BME280;62005;50.082;8.988;2023-07-31T04:13:34;100219.44;;;18.92;67.88
73700;BME280;62005;50.082;8.988;2023-07-31T04:15:59;100236.13;;;18.95;67.63
73700;BME280;62005;50.082;8.988;2023-07-31T04:18:25;100237.50;;;18.93;67.37
73700;BME280;62005;50.082;8.988;2023-07-31T04:20:51;100231.44;;;18.96;67.53
73700;BME280;62005;50.082;8.988;2023-07-31T04:23:16;100221.66;;;18.85;67.62
73700;BME280;62005;50.082;8.988;2023-07-31T04:25:42;100227.94;;;18.90;67.83
73700;BME280;62005;50.082;8.988;2023-07-31T04:28:07;100229.31;;;18.88;66.92
73700;BME280;62005;50.082;8.988;2023-07-31T04:30:33;100225.47;;;18.89;67.10
73700;BME280;62005;50.082;8.988;2023-07-31T04:32:58;100219.47;;;18.87;67.48
73700;BME280;62005;50.082;8.988;2023-07-31T04:35:24;100209.88;;;18.79;66.93
73700;BME280;62005;50.082;8.988;2023-07-31T04:37:49;100214.00;;;18.82;67.32
73700;BME280;62005;50.082;8.988;2023-07-31T04:40:16;100206.88;;;18.81;67.31
73700;BME280;62005;50.082;8.988;2023-07-31T04:42:41;100202.47;;;18.85;67.26
73700;BME280;62005;50.082;8.988;2023-07-31T04:45:08;100220.53;;;18.86;67.69
73700;BME280;62005;50.082;8.988;2023-07-31T04:47:34;100209.88;;;18.79;67.61
73700;BME280;62005;50.082;8.988;2023-07-31T04:49:59;100205.25;;;18.80;67.63
73700;BME280;62005;50.082;8.988;2023-07-31T04:52:24;100201.16;;;18.77;67.94
73700;BME280;62005;50.082;8.988;2023-07-31T04:54:50;100207.69;;;18.81;67.94
73700;BME280;62005;50.082;8.988;2023-07-31T04:57:15;100183.09;;;18.66;67.85
73700;BME280;62005;50.082;8.988;2023-07-31T04:59:40;100206.06;;;18.80;68.30
73700;BME280;62005;50.082;8.988;2023-07-31T05:02:08;100181.75;;;18.69;68.10
73700;BME280;62005;50.082;8.988;2023-07-31T05:04:33;100200.84;;;18.84;68.12
73700;BME280;62005;50.082;8.988;2023-07-31T05:06:59;100171.34;;;18.66;68.36
73700;BME280;62005;50.082;8.988;2023-07-31T05:09:24;100191.56;;;18.75;68.10
73700;BME280;62005;50.082;8.988;2023-07-31T05:11:49;100163.66;;;18.68;68.22
73700;BME280;62005;50.082;8.988;2023-07-31T05:14:15;100196.44;;;18.83;68.13
73700;BME280;62005;50.082;8.988;2023-07-31T05:16:41;100198.63;;;18.86;68.06
73700;BME280;62005;50.082;8.988;2023-07-31T05:19:06;100199.75;;;18.85;68.67
73700;BME280;62005;50.082;8.988;2023-07-31T05:21:32;100209.06;;;18.84;68.02
73700;BME280;62005;50.082;8.988;2023-07-31T05:23:57;100205.75;;;18.87;68.36
73700;BME280;62005;50.082;8.988;2023-07-31T05:26:22;100173.25;;;18.70;68.65
73700;BME280;62005;50.082;8.988;2023-07-31T05:28:48;100172.41;;;18.70;68.04
73700;BME280;62005;50.082;8.988;2023-07-31T05:31:13;100201.91;;;18.88;68.63
73700;BME280;62005;50.082;8.988;2023-07-31T05:33:39;100203.84;;;18.92;68.79
73700;BME280;62005;50.082;8.988;2023-07-31T05:36:04;100181.13;;;18.82;68.56
73700;BME280;62005;50.082;8.988;2023-07-31T05:38:29;100204.06;;;18.96;68.91
73700;BME280;62005;50.082;8.988;2023-07-31T05:40:55;100206.78;;;19.01;69.41
73700;BME280;62005;50.082;8.988;2023-07-31T05:43:20;100203.53;;;18.99;69.15
73700;BME280;62005;50.082;8.988;2023-07-31T05:45:47;100211.44;;;19.05;69.47
73700;BME280;62005;50.082;8.988;2023-07-31T05:48:12;100207.88;;;19.05;69.20
73700;BME280;62005;50.082;8.988;2023-07-31T05:50:38;100204.84;;;19.06;69.44
73700;BME280;62005;50.082;8.988;2023-07-31T05:53:06;100198.53;;;19.06;68.46
73700;BME280;62005;50.082;8.988;2023-07-31T05:55:33;100193.63;;;19.03;69.05
73700;BME280;62005;50.082;8.988;2023-07-31T05:57:58;100173.94;;;18.91;68.83
73700;BME280;62005;50.082;8.988;2023-07-31T06:00:24;100175.06;;;18.90;68.38
73700;BME280;62005;50.082;8.988;2023-07-31T06:02:49;100201.56;;;19.04;68.70
73700;BME280;62005;50.082;8.988;2023-07-31T06:05:15;100186.25;;;18.98;68.63
73700;BME280;62005;50.082;8.988;2023-07-31T06:07:40;100194.72;;;19.07;69.30
73700;BME280;62005;50.082;8.988;2023-07-31T06:10:06;100196.34;;;19.08;69.15
73700;BME280;62005;50.082;8.988;2023-07-31T06:12:32;100144.69;;;18.81;69.15
73700;BME280;62005;50.082;8.988;2023-07-31T06:14:58;100175.56;;;19.02;69.28
73700;BME280;62005;50.082;8.988;2023-07-31T06:17:23;100196.84;;;19.15;69.39
73700;BME280;62005;50.082;8.988;2023-07-31T06:19:49;100181.53;;;19.09;68.73
73700;BME280;62005;50.082;8.988;2023-07-31T06:22:15;100185.63;;;19.11;68.34
73700;BME280;62005;50.082;8.988;2023-07-31T06:24:40;100184.22;;;19.14;68.44
73700;BME280;62005;50.082;8.988;2023-07-31T06:27:06;100183.69;;;19.17;68.45
73700;BME280;62005;50.082;8.988;2023-07-31T06:29:31;100167.28;;;19.12;67.88
73700;BME280;62005;50.082;8.988;2023-07-31T06:31:57;100166.13;;;19.18;67.80
73700;BME280;62005;50.082;8.988;2023-07-31T06:34:23;100167.22;;;19.22;68.07
73700;BME280;62005;50.082;8.988;2023-07-31T06:36:48;100175.94;;;19.29;68.23
73700;BME280;62005;50.082;8.988;2023-07-31T06:39:13;100166.91;;;19.33;68.96
73700;BME280;62005;50.082;8.988;2023-07-31T06:41:38;100175.88;;;19.39;67.70
73700;BME280;62005;50.082;8.988;2023-07-31T06:44:04;100198.00;;;19.53;67.57
73700;BME280;62005;50.082;8.988;2023-07-31T06:46:29;100189.50;;;19.54;67.74
73700;BME280;62005;50.082;8.988;2023-07-31T06:48:55;100195.47;;;19.61;67.60
73700;BME280;62005;50.082;8.988;2023-07-31T06:51:20;100190.00;;;19.61;67.10
73700;BME280;62005;50.082;8.988;2023-07-31T06:53:46;100193.28;;;19.63;67.76
73700;BME280;62005;50.082;8.988;2023-07-31T06:56:11;100177.41;;;19.60;67.26
73700;BME280;62005;50.082;8.988;2023-07-31T06:58:37;100172.94;;;19.64;67.03
73700;BME280;62005;50.082;8.988;2023-07-31T07:01:02;100189.66;;;19.68;66.62
73700;BME280;62005;50.082;8.988;2023-07-31T07:03:27;100174.56;;;19.65;66.57
73700;BME280;62005;50.082;8.988;2023-07-31T07:05:53;100176.22;;;19.66;66.12
73700;BME280;62005;50.082;8.988;2023-07-31T07:08:18;100187.38;;;19.80;66.80
73700;BME280;62005;50.082;8.988;2023-07-31T07:10:43;100172.78;;;19.84;66.89
73700;BME280;62005;50.082;8.988;2023-07-31T07:13:09;100191.31;;;19.97;66.51
73700;BME280;62005;50.082;8.988;2023-07-31T07:15:35;100171.44;;;20.10;67.01
73700;BME280;62005;50.082;8.988;2023-07-31T07:18:00;100162.31;;;20.20;65.77
73700;BME280;62005;50.082;8.988;2023-07-31T07:20:25;100167.38;;;20.31;65.22
73700;BME280;62005;50.082;8.988;2023-07-31T07:22:51;100176.69;;;20.59;65.32
73700;BME280;62005;50.082;8.988;2023-07-31T07:25:16;100159.09;;;20.84;64.63
73700;BME280;62005;50.082;8.988;2023-07-31T07:27:41;100158.84;;;20.80;63.81
73700;BME280;62005;50.082;8.988;2023-07-31T07:30:07;100163.75;;;20.83;63.87
73700;BME280;62005;50.082;8.988;2023-07-31T07:32:33;100164.03;;;20.82;63.91
73700;BME280;62005;50.082;8.988;2023-07-31T07:34:58;100156.41;;;20.79;63.78
73700;BME280;62005;50.082;8.988;2023-07-31T07:37:23;100143.19;;;20.81;64.18
73700;BME280;62005;50.082;8.988;2023-07-31T07:39:49;100158.13;;;20.93;63.99
73700;BME280;62005;50.082;8.988;2023-07-31T07:42:14;100156.72;;;20.96;63.49
73700;BME280;62005;50.082;8.988;2023-07-31T07:44:39;100150.59;;;21.04;64.01
73700;BME280;62005;50.082;8.988;2023-07-31T07:47:05;100123.59;;;21.06;63.83
73700;BME280;62005;50.082;8.988;2023-07-31T07:49:34;100146.63;;;21.47;63.12
73700;BME280;62005;50.082;8.988;2023-07-31T07:52:00;100136.94;;;21.68;63.33
73700;BME280;62005;50.082;8.988;2023-07-31T07:54:26;100130.38;;;21.82;63.00
73700;BME280;62005;50.082;8.988;2023-07-31T07:56:51;100145.47;;;21.98;62.73
73700;BME280;62005;50.082;8.988;2023-07-31T07:59:16;100144.78;;;21.93;62.41
73700;BME280;62005;50.082;8.988;2023-07-31T08:01:42;100149.75;;;21.91;61.63
73700;BME280;62005;50.082;8.988;2023-07-31T08:04:07;100139.84;;;21.90;61.93
73700;BME280;62005;50.082;8.988;2023-07-31T08:06:32;100136.59;;;21.88;61.47
73700;BME280;62005;50.082;8.988;2023-07-31T08:08:59;100134.34;;;21.90;61.78
73700;BME280;62005;50.082;8.988;2023-07-31T08:11:24;100132.53;;;21.99;60.98
73700;BME280;62005;50.082;8.988;2023-07-31T08:13:49;100140.31;;;22.11;60.98
73700;BME280;62005;50.082;8.988;2023-07-31T08:16:15;100138.06;;;22.13;60.75
73700;BME280;62005;50.082;8.988;2023-07-31T08:18:41;100143.19;;;22.19;61.37
73700;BME280;62005;50.082;8.988;2023-07-31T08:21:07;100138.59;;;22.28;61.54
73700;BME280;62005;50.082;8.988;2023-07-31T08:23:33;100132.59;;;22.26;60.86
73700;BME280;62005;50.082;8.988;2023-07-31T08:25:58;100124.03;;;22.28;61.09
73700;BME280;62005;50.082;8.988;2023-07-31T08:28:25;100118.81;;;22.26;59.68
73700;BME280;62005;50.082;8.988;2023-07-31T08:30:50;100116.44;;;22.33;60.01
73700;BME280;62005;50.082;8.988;2023-07-31T08:33:16;100103.81;;;22.32;60.08
73700;BME280;62005;50.082;8.988;2023-07-31T08:35:41;100116.44;;;22.33;60.67
73700;BME280;62005;50.082;8.988;2023-07-31T08:38:07;100112.06;;;22.32;60.18
73700;BME280;62005;50.082;8.988;2023-07-31T08:40:36;100099.75;;;22.16;59.05
73700;BME280;62005;50.082;8.988;2023-07-31T08:43:02;100103.91;;;22.14;60.37
73700;BME280;62005;50.082;8.988;2023-07-31T08:45:28;100107.69;;;22.18;61.31
73700;BME280;62005;50.082;8.988;2023-07-31T08:47:55;100116.66;;;22.10;61.68
73700;BME280;62005;50.082;8.988;2023-07-31T08:50:21;100114.00;;;22.05;63.07
73700;BME280;62005;50.082;8.988;2023-07-31T08:52:49;100111.75;;;21.93;62.53
73700;BME280;62005;50.082;8.988;2023-07-31T08:55:15;100092.66;;;21.83;62.36
73700;BME280;62005;50.082;8.988;2023-07-31T08:57:42;100099.28;;;21.82;62.66
73700;BME280;62005;50.082;8.988;2023-07-31T09:00:09;100104.34;;;21.75;62.33
73700;BME280;62005;50.082;8.988;2023-07-31T09:02:41;100111.41;;;21.81;62.58
73700;BME280;62005;50.082;8.988;2023-07-31T09:05:09;100127.97;;;21.76;61.72
73700;BME280;62005;50.082;8.988;2023-07-31T09:07:35;100077.75;;;21.52;62.86
73700;BME280;62005;50.082;8.988;2023-07-31T09:10:02;100118.31;;;21.78;62.42
73700;BME280;62005;50.082;8.988;2023-07-31T09:12:27;100117.81;;;21.76;61.17
73700;BME280;62005;50.082;8.988;2023-07-31T09:14:53;100108.72;;;21.76;61.96
73700;BME280;62005;50.082;8.988;2023-07-31T09:17:31;100105.91;;;21.81;62.26
73700;BME280;62005;50.082;8.988;2023-07-31T09:19:56;100091.69;;;21.74;62.79
73700;BME280;62005;50.082;8.988;2023-07-31T09:22:34;100109.75;;;21.80;62.30
73700;BME280;62005;50.082;8.988;2023-07-31T09:28:02;100105.38;;;21.79;62.09
73700;BME280;62005;50.082;8.988;2023-07-31T09:30:27;100099.88;;;21.79;62.14
73700;BME280;62005;50.082;8.988;2023-07-31T09:33:05;100090.31;;;21.76;62.05
73700;BME280;62005;50.082;8.988;2023-07-31T09:35:34;100101.88;;;21.73;62.23
73700;BME280;62005;50.082;8.988;2023-07-31T09:38:08;100098.84;;;21.75;62.20
73700;BME280;62005;50.082;8.988;2023-07-31T09:40:35;100087.91;;;21.70;62.87
73700;BME280;62005;50.082;8.988;2023-07-31T09:43:04;100097.78;;;21.71;62.91
73700;BME280;62005;50.082;8.988;2023-07-31T09:45:30;100078.00;;;21.69;62.33
73700;BME280;62005;50.082;8.988;2023-07-31T09:47:56;100081.13;;;21.81;63.30
73700;BME280;62005;50.082;8.988;2023-07-31T09:50:24;100085.00;;;21.80;63.71
73700;BME280;62005;50.082;8.988;2023-07-31T09:52:50;100072.38;;;21.79;62.02
73700;BME280;62005;50.082;8.988;2023-07-31T09:55:17;100087.66;;;21.85;61.97
73700;BME280;62005;50.082;8.988;2023-07-31T09:57:45;100072.38;;;21.79;62.09
73700;BME280;62005;50.082;8.988;2023-07-31T10:00:12;100073.88;;;21.85;61.65
73700;BME280;62005;50.082;8.988;2023-07-31T10:02:38;100072.78;;;21.86;62.12
73700;BME280;62005;50.082;8.988;2023-07-31T10:05:05;100076.06;;;21.88;61.95
73700;BME280;62005;50.082;8.988;2023-07-31T10:07:36;100066.66;;;21.89;62.49
73700;BME280;62005;50.082;8.988;2023-07-31T10:10:04;100062.28;;;21.88;63.73
73700;BME280;62005;50.082;8.988;2023-07-31T10:12:31;100048.13;;;21.81;62.78
73700;BME280;62005;50.082;8.988;2023-07-31T10:14:59;100036.66;;;21.74;63.58
73700;BME280;62005;50.082;8.988;2023-07-31T10:17:25;100054.63;;;21.85;63.53
73700;BME280;62005;50.082;8.988;2023-07-31T10:19:51;100040.75;;;21.90;64.10
73700;BME280;62005;50.082;8.988;2023-07-31T10:22:19;100035.78;;;21.92;63.57
73700;BME280;62005;50.082;8.988;2023-07-31T10:24:46;100037.31;;;21.98;62.83
73700;BME280;62005;50.082;8.988;2023-07-31T10:27:11;100028.97;;;22.03;62.84
73700;BME280;62005;50.082;8.988;2023-07-31T10:29:38;100022.75;;;22.11;63.81
73700;BME280;62005;50.082;8.988;2023-07-31T10:32:05;100019.38;;;22.14;63.42
73700;BME280;62005;50.082;8.988;2023-07-31T10:34:34;100002.84;;;22.14;62.19
73700;BME280;62005;50.082;8.988;2023-07-31T10:42:37;100011.41;;;22.26;60.16
73700;BME280;62005;50.082;8.988;2023-07-31T10:45:08;100014.44;;;22.38;60.43
73700;BME280;62005;50.082;8.988;2023-07-31T10:47:47;100010.94;;;22.46;59.71
73700;BME280;62005;50.082;8.988;2023-07-31T10:52:39;100008.00;;;22.56;58.48
73700;BME280;62005;50.082;8.988;2023-07-31T10:55:40;99993.09;;;22.57;58.50
73700;BME280;62005;50.082;8.988;2023-07-31T11:00:31;99988.41;;;22.58;58.79
73700;BME280;62005;50.082;8.988;2023-07-31T11:05:47;99995.41;;;22.77;58.25
73700;BME280;62005;50.082;8.988;2023-07-31T11:08:15;99994.38;;;22.73;58.23
73700;BME280;62005;50.082;8.988;2023-07-31T11:10:42;99976.81;;;22.69;58.33
73700;BME280;62005;50.082;8.988;2023-07-31T11:13:08;99995.41;;;22.77;58.87
73700;BME280;62005;50.082;8.988;2023-07-31T11:15:33;99966.94;;;22.68;58.83
73700;BME280;62005;50.082;8.988;2023-07-31T11:18:00;99979.28;;;22.71;59.04
73700;BME280;62005;50.082;8.988;2023-07-31T11:20:32;99981.75;;;22.72;59.76
73700;BME280;62005;50.082;8.988;2023-07-31T11:23:00;99979.28;;;22.71;59.83
73700;BME280;62005;50.082;8.988;2023-07-31T11:25:25;99951.28;;;22.55;59.73
73700;BME280;62005;50.082;8.988;2023-07-31T11:27:51;99965.63;;;22.66;59.98
73700;BME280;62005;50.082;8.988;2023-07-31T11:30:19;99973.78;;;22.71;60.26
73700;BME280;62005;50.082;8.988;2023-07-31T11:32:45;99971.19;;;22.74;60.17
73700;BME280;62005;50.082;8.988;2023-07-31T11:35:13;99967.84;;;22.77;60.33
73700;BME280;62005;50.082;8.988;2023-07-31T11:37:42;99974.34;;;22.81;57.88
73700;BME280;62005;50.082;8.988;2023-07-31T11:40:08;99949.25;;;22.69;57.57
73700;BME280;62005;50.082;8.988;2023-07-31T11:42:34;99967.56;;;22.87;57.53
73700;BME280;62005;50.082;8.988;2023-07-31T11:45:06;99976.66;;;22.88;56.02
73700;BME280;62005;50.082;8.988;2023-07-31T11:47:36;99971.13;;;22.88;55.89
73700;BME280;62005;50.082;8.988;2023-07-31T11:50:03;99971.97;;;22.88;55.96
73700;BME280;62005;50.082;8.988;2023-07-31T11:52:32;99964.31;;;22.85;56.33
73700;BME280;62005;50.082;8.988;2023-07-31T11:54:59;99956.53;;;22.87;56.20
73700;BME280;62005;50.082;8.988;2023-07-31T11:57:25;99952.66;;;22.88;57.67
73700;BME280;62005;50.082;8.988;2023-07-31T11:59:51;99953.03;;;22.95;57.16
73700;BME280;62005;50.082;8.988;2023-07-31T12:02:17;99961.00;;;22.97;57.28
73700;BME280;62005;50.082;8.988;2023-07-31T12:04:43;99948.31;;;22.96;55.86
73700;BME280;62005;50.082;8.988;2023-07-31T12:07:09;99932.22;;;22.89;55.78
73700;BME280;62005;50.082;8.988;2023-07-31T12:09:34;99953.03;;;22.95;56.14
73700;BME280;62005;50.082;8.988;2023-07-31T12:11:59;99942.28;;;22.85;56.59
73700;BME280;62005;50.082;8.988;2023-07-31T12:14:27;99956.13;;;22.94;56.22
73700;BME280;62005;50.082;8.988;2023-07-31T12:17:00;99936.31;;;22.92;55.85
73700;BME280;62005;50.082;8.988;2023-07-31T12:19:29;99941.00;;;22.91;55.83
73700;BME280;62005;50.082;8.988;2023-07-31T12:21:59;99945.25;;;22.97;56.14
73700;BME280;62005;50.082;8.988;2023-07-31T12:24:26;99934.22;;;22.97;55.71
73700;BME280;62005;50.082;8.988;2023-07-31T12:26:51;99943.63;;;22.96;55.73
73700;BME280;62005;50.082;8.988;2023-07-31T12:29:18;99937.31;;;22.96;56.27
73700;BME280;62005;50.082;8.988;2023-07-31T12:31:43;99935.03;;;22.98;55.93
73700;BME280;62005;50.082;8.988;2023-07-31T12:34:20;99929.97;;;22.91;56.06
73700;BME280;62005;50.082;8.988;2023-07-31T12:36:48;99938.75;;;22.93;55.88
73700;BME280;62005;50.082;8.988;2023-07-31T12:39:14;99920.75;;;22.96;56.49
73700;BME280;62005;50.082;8.988;2023-07-31T12:41:40;99933.63;;;23.00;57.25
73700;BME280;62005;50.082;8.988;2023-07-31T12:44:05;99918.06;;;23.04;57.30
73700;BME280;62005;50.082;8.988;2023-07-31T12:46:30;99916.81;;;23.10;56.84
73700;BME280;62005;50.082;8.988;2023-07-31T12:48:56;99919.41;;;23.15;56.86
73700;BME280;62005;50.082;8.988;2023-07-31T12:51:21;99915.34;;;23.13;56.59
73700;BME280;62005;50.082;8.988;2023-07-31T12:53:46;99884.13;;;22.95;56.71
73700;BME280;62005;50.082;8.988;2023-07-31T12:56:12;99908.03;;;23.08;56.79
73700;BME280;62005;50.082;8.988;2023-07-31T12:58:37;99904.78;;;23.06;57.16
73700;BME280;62005;50.082;8.988;2023-07-31T13:01:02;99908.03;;;23.08;57.33
73700;BME280;62005;50.082;8.988;2023-07-31T13:03:28;99893.25;;;23.04;57.63
73700;BME280;62005;50.082;8.988;2023-07-31T13:05:54;99887.22;;;23.02;57.31
73700;BME280;62005;50.082;8.988;2023-07-31T13:08:19;99892.13;;;23.05;57.17
73700;BME280;62005;50.082;8.988;2023-07-31T13:10:45;99880.09;;;23.01;57.82
73700;BME280;62005;50.082;8.988;2023-07-31T13:13:10;99874.72;;;22.96;57.00
73700;BME280;62005;50.082;8.988;2023-07-31T13:15:36;99873.56;;;22.97;57.22